sensor_id;sensor_type;location;lat;lon;timestamp;P1;durP1;ratioP1;P2;durP2;ratioP2
41705;SDS011;27385;51.096;17.190;2023-05-14T00:01:28;27.90;;;9.90;;
41705;SDS011;27385;51.096;17.190;2023-05-14T00:03:58;29.00;;;11.20;;
41705;SDS011;27385;51.096;17.190;2023-05-14T00:06:29;29.90;;;10.70;;
41705;SDS011;27385;51.096;17.190;2023-05-14T00:09:00;28.10;;;10.50;;
41705;SDS011;27385;51.096;17.190;2023-05-14T00:11:31;26.70;;;9.00;;
41705;SDS011;27385;51.096;17.190;2023-05-14T00:14:03;25.80;;;9.10;;
41705;SDS011;27385;51.096;17.190;2023-05-14T00:16:34;21.30;;;8.50;;
41705;SDS011;27385;51.096;17.190;2023-05-14T00:19:04;23.60;;;9.30;;
41705;SDS011;27385;51.096;17.190;2023-05-14T00:21:35;24.10;;;9.10;;
41705;SDS011;27385;51.096;17.190;2023-05-14T00:24:06;24.10;;;8.20;;
41705;SDS011;27385;51.096;17.190;2023-05-14T00:26:37;24.50;;;8.60;;
41705;SDS011;27385;51.096;17.190;2023-05-14T00:29:08;19.10;;;7.80;;
41705;SDS011;27385;51.096;17.190;2023-05-14T00:31:39;23.00;;;8.40;;
41705;SDS011;27385;51.096;17.190;2023-05-14T00:34:10;20.60;;;7.40;;
41705;SDS011;27385;51.096;17.190;2023-05-14T00:36:41;24.90;;;9.90;;
41705;SDS011;27385;51.096;17.190;2023-05-14T00:39:12;22.70;;;7.30;;
41705;SDS011;27385;51.096;17.190;2023-05-14T00:41:42;20.50;;;7.30;;
41705;SDS011;27385;51.096;17.190;2023-05-14T00:44:14;22.10;;;8.10;;
41705;SDS011;27385;51.096;17.190;2023-05-14T00:46:44;21.10;;;7.80;;
41705;SDS011;27385;51.096;17.190;2023-05-14T00:49:15;25.50;;;8.60;;
41705;SDS011;27385;51.096;17.190;2023-05-14T00:51:47;23.80;;;9.00;;
41705;SDS011;27385;51.096;17.190;2023-05-14T00:54:19;27.70;;;10.60;;
41705;SDS011;27385;51.096;17.190;2023-05-14T00:56:50;30.70;;;10.60;;
41705;SDS011;27385;51.096;17.190;2023-05-14T00:59:22;30.80;;;11.20;;
41705;SDS011;27385;51.096;17.190;2023-05-14T01:01:53;29.30;;;9.90;;
41705;SDS011;27385;51.096;17.190;2023-05-14T01:04:24;27.60;;;9.40;;
41705;SDS011;27385;51.096;17.190;2023-05-14T01:06:57;28.90;;;9.90;;
41705;SDS011;27385;51.096;17.190;2023-05-14T01:09:38;26.60;;;9.20;;
41705;SDS011;27385;51.096;17.190;2023-05-14T01:12:16;21.80;;;8.40;;
41705;SDS011;27385;51.096;17.190;2023-05-14T01:14:53;23.00;;;8.30;;
41705;SDS011;27385;51.096;17.190;2023-05-14T01:17:27;26.30;;;9.20;;
41705;SDS011;27385;51.096;17.190;2023-05-14T01:20:00;27.10;;;10.20;;
41705;SDS011;27385;51.096;17.190;2023-05-14T01:22:32;36.50;;;15.10;;
41705;SDS011;27385;51.096;17.190;2023-05-14T01:25:03;39.30;;;15.20;;
41705;SDS011;27385;51.096;17.190;2023-05-14T01:27:37;38.70;;;16.40;;
41705;SDS011;27385;51.096;17.190;2023-05-14T01:30:16;42.30;;;16.20;;
41705;SDS011;27385;51.096;17.190;2023-05-14T01:32:52;38.00;;;16.50;;
41705;SDS011;27385;51.096;17.190;2023-05-14T01:35:27;37.70;;;15.10;;
41705;SDS011;27385;51.096;17.190;2023-05-14T01:37:59;44.90;;;16.20;;
41705;SDS011;27385;51.096;17.190;2023-05-14T01:40:32;39.70;;;14.60;;
41705;SDS011;27385;51.096;17.190;2023-05-14T01:43:05;35.10;;;12.40;;
41705;SDS011;27385;51.096;17.190;2023-05-14T01:45:36;32.70;;;12.20;;
41705;SDS011;27385;51.096;17.190;2023-05-14T01:48:07;33.20;;;11.90;;
41705;SDS011;27385;51.096;17.190;2023-05-14T01:50:38;25.60;;;9.60;;
41705;SDS011;27385;51.096;17.190;2023-05-14T01:53:09;25.00;;;9.80;;
41705;SDS011;27385;51.096;17.190;2023-05-14T01:55:40;26.10;;;9.20;;
41705;SDS011;27385;51.096;17.190;2023-05-14T01:58:11;20.00;;;8.00;;
41705;SDS011;27385;51.096;17.190;2023-05-14T02:00:41;18.60;;;7.30;;
41705;SDS011;27385;51.096;17.190;2023-05-14T02:03:12;20.30;;;6.50;;
41705;SDS011;27385;51.096;17.190;2023-05-14T02:05:43;15.90;;;6.20;;
41705;SDS011;27385;51.096;17.190;2023-05-14T02:08:14;21.00;;;6.90;;
41705;SDS011;27385;51.096;17.190;2023-05-14T02:10:45;20.70;;;6.00;;
41705;SDS011;27385;51.096;17.190;2023-05-14T02:13:15;18.10;;;6.40;;
41705;SDS011;27385;51.096;17.190;2023-05-14T02:15:48;17.00;;;5.70;;
41705;SDS011;27385;51.096;17.190;2023-05-14T02:18:18;16.60;;;5.70;;
41705;SDS011;27385;51.096;17.190;2023-05-14T02:20:49;17.90;;;5.50;;
41705;SDS011;27385;51.096;17.190;2023-05-14T02:23:20;17.60;;;6.10;;
41705;SDS011;27385;51.096;17.190;2023-05-14T02:25:51;20.30;;;6.10;;
41705;SDS011;27385;51.096;17.190;2023-05-14T02:28:22;19.20;;;6.00;;
41705;SDS011;27385;51.096;17.190;2023-05-14T02:30:58;14.10;;;4.60;;
41705;SDS011;27385;51.096;17.190;2023-05-14T02:33:29;16.10;;;5.80;;
41705;SDS011;27385;51.096;17.190;2023-05-14T02:36:00;18.70;;;6.10;;
41705;SDS011;27385;51.096;17.190;2023-05-14T02:38:31;15.80;;;5.80;;
41705;SDS011;27385;51.096;17.190;2023-05-14T02:41:02;13.60;;;3.80;;
41705;SDS011;27385;51.096;17.190;2023-05-14T02:43:33;19.10;;;5.40;;
41705;SDS011;27385;51.096;17.190;2023-05-14T02:46:03;16.60;;;6.00;;
41705;SDS011;27385;51.096;17.190;2023-05-14T02:48:34;15.70;;;5.20;;
41705;SDS011;27385;51.096;17.190;2023-05-14T02:51:05;17.50;;;6.50;;
41705;SDS011;27385;51.096;17.190;2023-05-14T02:53:36;15.90;;;5.40;;
41705;SDS011;27385;51.096;17.190;2023-05-14T02:56:07;18.20;;;6.10;;
41705;SDS011;27385;51.096;17.190;2023-05-14T02:58:38;17.50;;;5.50;;
41705;SDS011;27385;51.096;17.190;2023-05-14T03:01:09;15.10;;;5.80;;
41705;SDS011;27385;51.096;17.190;2023-05-14T03:03:40;15.80;;;4.70;;
41705;SDS011;27385;51.096;17.190;2023-05-14T03:06:11;17.20;;;5.80;;
41705;SDS011;27385;51.096;17.190;2023-05-14T03:08:42;16.80;;;5.40;;
41705;SDS011;27385;51.096;17.190;2023-05-14T03:11:12;18.80;;;6.20;;
41705;SDS011;27385;51.096;17.190;2023-05-14T03:13:43;16.60;;;5.80;;
41705;SDS011;27385;51.096;17.190;2023-05-14T03:16:14;15.30;;;5.30;;
41705;SDS011;27385;51.096;17.190;2023-05-14T03:18:45;16.90;;;6.40;;
41705;SDS011;27385;51.096;17.190;2023-05-14T03:21:16;19.00;;;7.10;;
41705;SDS011;27385;51.096;17.190;2023-05-14T03:23:46;22.80;;;7.00;;
41705;SDS011;27385;51.096;17.190;2023-05-14T03:26:17;18.80;;;6.50;;
41705;SDS011;27385;51.096;17.190;2023-05-14T03:28:49;22.70;;;7.50;;
41705;SDS011;27385;51.096;17.190;2023-05-14T03:31:20;19.80;;;7.00;;
41705;SDS011;27385;51.096;17.190;2023-05-14T03:33:51;20.80;;;7.40;;
41705;SDS011;27385;51.096;17.190;2023-05-14T03:36:22;18.50;;;7.10;;
41705;SDS011;27385;51.096;17.190;2023-05-14T03:38:53;19.30;;;7.40;;
41705;SDS011;27385;51.096;17.190;2023-05-14T03:41:24;20.20;;;6.90;;
41705;SDS011;27385;51.096;17.190;2023-05-14T03:43:55;19.20;;;7.60;;
41705;SDS011;27385;51.096;17.190;2023-05-14T03:46:26;20.10;;;7.30;;
41705;SDS011;27385;51.096;17.190;2023-05-14T03:48:57;20.90;;;7.20;;
41705;SDS011;27385;51.096;17.190;2023-05-14T03:51:28;22.90;;;6.70;;
41705;SDS011;27385;51.096;17.190;2023-05-14T03:54:00;19.70;;;6.70;;
41705;SDS011;27385;51.096;17.190;2023-05-14T03:56:31;22.30;;;7.60;;
41705;SDS011;27385;51.096;17.190;2023-05-14T03:59:02;17.50;;;6.60;;
41705;SDS011;27385;51.096;17.190;2023-05-14T04:01:33;19.80;;;7.50;;
41705;SDS011;27385;51.096;17.190;2023-05-14T04:04:03;20.10;;;7.70;;
41705;SDS011;27385;51.096;17.190;2023-05-14T04:06:35;21.10;;;7.30;;
41705;SDS011;27385;51.096;17.190;2023-05-14T04:09:06;17.60;;;7.10;;
41705;SDS011;27385;51.096;17.190;2023-05-14T04:11:37;20.70;;;7.70;;
41705;SDS011;27385;51.096;17.190;2023-05-14T04:14:08;21.00;;;8.20;;
41705;SDS011;27385;51.096;17.190;2023-05-14T04:16:39;20.70;;;7.90;;
41705;SDS011;27385;51.096;17.190;2023-05-14T04:19:10;28.10;;;8.60;;
41705;SDS011;27385;51.096;17.190;2023-05-14T04:21:41;21.80;;;6.90;;
41705;SDS011;27385;51.096;17.190;2023-05-14T04:24:12;18.10;;;7.00;;
41705;SDS011;27385;51.096;17.190;2023-05-14T04:26:42;20.30;;;7.80;;
41705;SDS011;27385;51.096;17.190;2023-05-14T04:29:13;22.40;;;8.90;;
41705;SDS011;27385;51.096;17.190;2023-05-14T04:31:44;20.20;;;8.30;;
41705;SDS011;27385;51.096;17.190;2023-05-14T04:34:16;19.90;;;8.10;;
41705;SDS011;27385;51.096;17.190;2023-05-14T04:36:47;23.60;;;8.10;;
41705;SDS011;27385;51.096;17.190;2023-05-14T04:39:19;22.00;;;9.10;;
41705;SDS011;27385;51.096;17.190;2023-05-14T04:41:49;22.20;;;8.50;;
41705;SDS011;27385;51.096;17.190;2023-05-14T04:44:21;21.50;;;7.70;;
41705;SDS011;27385;51.096;17.190;2023-05-14T04:46:52;19.80;;;7.50;;
41705;SDS011;27385;51.096;17.190;2023-05-14T04:49:24;21.60;;;7.80;;
41705;SDS011;27385;51.096;17.190;2023-05-14T04:51:54;17.60;;;6.60;;
41705;SDS011;27385;51.096;17.190;2023-05-14T04:54:26;20.20;;;7.80;;
41705;SDS011;27385;51.096;17.190;2023-05-14T04:56:56;20.00;;;7.60;;
41705;SDS011;27385;51.096;17.190;2023-05-14T04:59:30;21.80;;;7.70;;
41705;SDS011;27385;51.096;17.190;2023-05-14T05:02:00;21.00;;;7.80;;
41705;SDS011;27385;51.096;17.190;2023-05-14T05:04:32;21.40;;;8.00;;
41705;SDS011;27385;51.096;17.190;2023-05-14T05:07:04;27.00;;;8.10;;
41705;SDS011;27385;51.096;17.190;2023-05-14T05:09:35;18.30;;;8.00;;
41705;SDS011;27385;51.096;17.190;2023-05-14T05:12:07;18.50;;;6.50;;
41705;SDS011;27385;51.096;17.190;2023-05-14T05:14:38;14.50;;;6.10;;
41705;SDS011;27385;51.096;17.190;2023-05-14T05:17:09;17.60;;;6.60;;
41705;SDS011;27385;51.096;17.190;2023-05-14T05:19:40;16.30;;;5.10;;
41705;SDS011;27385;51.096;17.190;2023-05-14T05:22:11;15.30;;;5.30;;
41705;SDS011;27385;51.096;17.190;2023-05-14T05:24:43;19.70;;;6.50;;
41705;SDS011;27385;51.096;17.190;2023-05-14T05:27:14;18.30;;;6.80;;
41705;SDS011;27385;51.096;17.190;2023-05-14T05:29:45;16.30;;;6.40;;
41705;SDS011;27385;51.096;17.190;2023-05-14T05:32:16;19.10;;;6.40;;
41705;SDS011;27385;51.096;17.190;2023-05-14T05:34:47;18.60;;;6.10;;
41705;SDS011;27385;51.096;17.190;2023-05-14T05:37:18;19.80;;;6.50;;
41705;SDS011;27385;51.096;17.190;2023-05-14T05:39:49;16.60;;;6.00;;
41705;SDS011;27385;51.096;17.190;2023-05-14T05:42:24;17.40;;;5.40;;
41705;SDS011;27385;51.096;17.190;2023-05-14T05:44:55;14.10;;;5.50;;
41705;SDS011;27385;51.096;17.190;2023-05-14T05:47:26;16.00;;;5.10;;
41705;SDS011;27385;51.096;17.190;2023-05-14T05:49:58;17.40;;;6.20;;
41705;SDS011;27385;51.096;17.190;2023-05-14T05:52:29;17.60;;;5.20;;
41705;SDS011;27385;51.096;17.190;2023-05-14T05:55:00;16.40;;;5.20;;
41705;SDS011;27385;51.096;17.190;2023-05-14T05:57:30;13.60;;;4.70;;
41705;SDS011;27385;51.096;17.190;2023-05-14T06:00:03;14.90;;;4.50;;
41705;SDS011;27385;51.096;17.190;2023-05-14T06:02:40;12.80;;;4.60;;
41705;SDS011;27385;51.096;17.190;2023-05-14T06:05:11;14.00;;;4.20;;
41705;SDS011;27385;51.096;17.190;2023-05-14T06:07:43;12.80;;;4.20;;
41705;SDS011;27385;51.096;17.190;2023-05-14T06:10:14;12.20;;;4.10;;
41705;SDS011;27385;51.096;17.190;2023-05-14T06:12:45;16.60;;;4.90;;
41705;SDS011;27385;51.096;17.190;2023-05-14T06:15:16;14.60;;;4.30;;
41705;SDS011;27385;51.096;17.190;2023-05-14T06:17:47;11.30;;;3.30;;
41705;SDS011;27385;51.096;17.190;2023-05-14T06:20:18;10.70;;;3.20;;
41705;SDS011;27385;51.096;17.190;2023-05-14T06:22:49;12.60;;;3.50;;
41705;SDS011;27385;51.096;17.190;2023-05-14T06:25:20;12.30;;;4.20;;
41705;SDS011;27385;51.096;17.190;2023-05-14T06:27:51;17.10;;;3.90;;
41705;SDS011;27385;51.096;17.190;2023-05-14T06:30:22;10.10;;;3.00;;
41705;SDS011;27385;51.096;17.190;2023-05-14T06:32:52;9.60;;;3.30;;
41705;SDS011;27385;51.096;17.190;2023-05-14T06:35:23;12.70;;;3.60;;
41705;SDS011;27385;51.096;17.190;2023-05-14T06:37:54;9.60;;;2.50;;
41705;SDS011;27385;51.096;17.190;2023-05-14T06:40:25;10.80;;;2.50;;
41705;SDS011;27385;51.096;17.190;2023-05-14T06:42:56;9.70;;;2.40;;
41705;SDS011;27385;51.096;17.190;2023-05-14T06:45:27;9.90;;;2.40;;
41705;SDS011;27385;51.096;17.190;2023-05-14T06:47:57;10.10;;;2.60;;
41705;SDS011;27385;51.096;17.190;2023-05-14T06:50:28;10.50;;;2.50;;
41705;SDS011;27385;51.096;17.190;2023-05-14T06:52:59;9.20;;;2.90;;
41705;SDS011;27385;51.096;17.190;2023-05-14T06:55:31;9.70;;;2.80;;
41705;SDS011;27385;51.096;17.190;2023-05-14T06:58:01;9.20;;;2.80;;
41705;SDS011;27385;51.096;17.190;2023-05-14T07:00:34;8.00;;;2.00;;
41705;SDS011;27385;51.096;17.190;2023-05-14T07:03:04;7.80;;;1.80;;
41705;SDS011;27385;51.096;17.190;2023-05-14T07:05:35;6.20;;;1.60;;
41705;SDS011;27385;51.096;17.190;2023-05-14T07:08:07;6.60;;;1.40;;
41705;SDS011;27385;51.096;17.190;2023-05-14T07:10:38;5.20;;;1.50;;
41705;SDS011;27385;51.096;17.190;2023-05-14T07:13:09;6.50;;;1.10;;
41705;SDS011;27385;51.096;17.190;2023-05-14T07:15:40;5.00;;;1.10;;
41705;SDS011;27385;51.096;17.190;2023-05-14T07:18:11;3.80;;;1.30;;
41705;SDS011;27385;51.096;17.190;2023-05-14T07:20:42;5.90;;;1.00;;
41705;SDS011;27385;51.096;17.190;2023-05-14T07:23:13;5.70;;;1.00;;
41705;SDS011;27385;51.096;17.190;2023-05-14T07:25:44;5.00;;;1.00;;
41705;SDS011;27385;51.096;17.190;2023-05-14T07:28:15;4.30;;;0.90;;
41705;SDS011;27385;51.096;17.190;2023-05-14T07:30:46;3.60;;;0.90;;
41705;SDS011;27385;51.096;17.190;2023-05-14T07:33:17;5.10;;;0.90;;
41705;SDS011;27385;51.096;17.190;2023-05-14T07:35:48;2.50;;;0.70;;
41705;SDS011;27385;51.096;17.190;2023-05-14T07:38:19;4.80;;;0.90;;
41705;SDS011;27385;51.096;17.190;2023-05-14T07:40:51;5.50;;;1.20;;
41705;SDS011;27385;51.096;17.190;2023-05-14T07:43:22;2.70;;;0.80;;
41705;SDS011;27385;51.096;17.190;2023-05-14T07:45:52;2.50;;;0.60;;
41705;SDS011;27385;51.096;17.190;2023-05-14T07:48:23;3.30;;;0.60;;
41705;SDS011;27385;51.096;17.190;2023-05-14T07:50:54;3.30;;;0.80;;
41705;SDS011;27385;51.096;17.190;2023-05-14T07:53:25;1.80;;;0.60;;
41705;SDS011;27385;51.096;17.190;2023-05-14T07:55:56;2.20;;;0.70;;
41705;SDS011;27385;51.096;17.190;2023-05-14T07:58:27;2.40;;;0.70;;
41705;SDS011;27385;51.096;17.190;2023-05-14T08:00:58;4.00;;;0.70;;
41705;SDS011;27385;51.096;17.190;2023-05-14T08:03:33;3.00;;;0.90;;
41705;SDS011;27385;51.096;17.190;2023-05-14T08:06:05;6.80;;;1.30;;
41705;SDS011;27385;51.096;17.190;2023-05-14T08:08:36;4.50;;;1.00;;
41705;SDS011;27385;51.096;17.190;2023-05-14T08:11:07;3.70;;;0.80;;
41705;SDS011;27385;51.096;17.190;2023-05-14T08:13:38;5.30;;;1.10;;
41705;SDS011;27385;51.096;17.190;2023-05-14T08:16:09;6.70;;;1.10;;
41705;SDS011;27385;51.096;17.190;2023-05-14T08:18:40;14.40;;;4.00;;
41705;SDS011;27385;51.096;17.190;2023-05-14T08:21:11;29.90;;;11.90;;
41705;SDS011;27385;51.096;17.190;2023-05-14T08:23:41;19.70;;;6.50;;
41705;SDS011;27385;51.096;17.190;2023-05-14T08:26:12;46.00;;;16.70;;
41705;SDS011;27385;51.096;17.190;2023-05-14T08:28:43;19.60;;;5.80;;
41705;SDS011;27385;51.096;17.190;2023-05-14T08:31:14;11.00;;;2.70;;
41705;SDS011;27385;51.096;17.190;2023-05-14T08:33:45;4.70;;;0.90;;
41705;SDS011;27385;51.096;17.190;2023-05-14T08:36:16;6.20;;;1.30;;
41705;SDS011;27385;51.096;17.190;2023-05-14T08:38:46;3.90;;;1.00;;
41705;SDS011;27385;51.096;17.190;2023-05-14T08:41:17;4.80;;;0.60;;
41705;SDS011;27385;51.096;17.190;2023-05-14T08:43:53;6.20;;;1.10;;
41705;SDS011;27385;51.096;17.190;2023-05-14T08:46:32;3.60;;;0.70;;
41705;SDS011;27385;51.096;17.190;2023-05-14T08:49:07;4.50;;;0.80;;
41705;SDS011;27385;51.096;17.190;2023-05-14T08:51:44;4.50;;;0.90;;
41705;SDS011;27385;51.096;17.190;2023-05-14T08:54:16;4.60;;;0.70;;
41705;SDS011;27385;51.096;17.190;2023-05-14T08:56:49;4.50;;;0.90;;
41705;SDS011;27385;51.096;17.190;2023-05-14T08:59:21;3.10;;;0.80;;
41705;SDS011;27385;51.096;17.190;2023-05-14T09:01:52;3.10;;;0.80;;
41705;SDS011;27385;51.096;17.190;2023-05-14T09:04:26;3.30;;;0.60;;
41705;SDS011;27385;51.096;17.190;2023-05-14T09:06:58;2.70;;;0.60;;
41705;SDS011;27385;51.096;17.190;2023-05-14T09:09:30;2.80;;;0.60;;
41705;SDS011;27385;51.096;17.190;2023-05-14T09:12:02;2.60;;;0.40;;
41705;SDS011;27385;51.096;17.190;2023-05-14T09:14:34;3.50;;;0.80;;
41705;SDS011;27385;51.096;17.190;2023-05-14T09:17:05;11.20;;;0.80;;
41705;SDS011;27385;51.096;17.190;2023-05-14T09:19:39;2.40;;;0.70;;
41705;SDS011;27385;51.096;17.190;2023-05-14T09:22:12;2.70;;;0.60;;
41705;SDS011;27385;51.096;17.190;2023-05-14T09:24:44;2.60;;;0.70;;
41705;SDS011;27385;51.096;17.190;2023-05-14T09:27:29;3.50;;;0.70;;
41705;SDS011;27385;51.096;17.190;2023-05-14T09:30:09;2.70;;;0.60;;
41705;SDS011;27385;51.096;17.190;2023-05-14T09:32:42;3.40;;;0.60;;
41705;SDS011;27385;51.096;17.190;2023-05-14T09:35:15;5.30;;;0.50;;
41705;SDS011;27385;51.096;17.190;2023-05-14T09:37:48;2.50;;;0.50;;
41705;SDS011;27385;51.096;17.190;2023-05-14T09:40:21;1.40;;;0.50;;
41705;SDS011;27385;51.096;17.190;2023-05-14T09:42:52;2.60;;;0.50;;
41705;SDS011;27385;51.096;17.190;2023-05-14T09:45:24;2.10;;;0.50;;
41705;SDS011;27385;51.096;17.190;2023-05-14T09:47:55;1.90;;;0.50;;
41705;SDS011;27385;51.096;17.190;2023-05-14T09:50:29;2.50;;;0.60;;
41705;SDS011;27385;51.096;17.190;2023-05-14T09:53:00;2.80;;;0.70;;
41705;SDS011;27385;51.096;17.190;2023-05-14T09:55:31;4.40;;;0.80;;
41705;SDS011;27385;51.096;17.190;2023-05-14T09:58:04;3.30;;;0.60;;
41705;SDS011;27385;51.096;17.190;2023-05-14T10:00:34;1.70;;;0.50;;
41705;SDS011;27385;51.096;17.190;2023-05-14T10:03:06;2.20;;;0.60;;
41705;SDS011;27385;51.096;17.190;2023-05-14T10:05:40;2.70;;;0.50;;
41705;SDS011;27385;51.096;17.190;2023-05-14T10:08:13;2.20;;;0.50;;
41705;SDS011;27385;51.096;17.190;2023-05-14T10:10:50;1.70;;;0.50;;
41705;SDS011;27385;51.096;17.190;2023-05-14T10:13:24;2.10;;;0.50;;
41705;SDS011;27385;51.096;17.190;2023-05-14T10:16:01;1.50;;;0.50;;
41705;SDS011;27385;51.096;17.190;2023-05-14T10:18:37;1.60;;;0.40;;
41705;SDS011;27385;51.096;17.190;2023-05-14T10:21:13;2.80;;;0.50;;
41705;SDS011;27385;51.096;17.190;2023-05-14T10:23:47;1.80;;;0.60;;
41705;SDS011;27385;51.096;17.190;2023-05-14T10:26:20;2.40;;;0.70;;
41705;SDS011;27385;51.096;17.190;2023-05-14T10:28:51;3.00;;;0.60;;
41705;SDS011;27385;51.096;17.190;2023-05-14T10:31:24;3.60;;;0.60;;
41705;SDS011;27385;51.096;17.190;2023-05-14T10:37:11;5.30;;;0.50;;
41705;SDS011;27385;51.096;17.190;2023-05-14T10:39:45;2.10;;;0.70;;
41705;SDS011;27385;51.096;17.190;2023-05-14T10:42:18;2.70;;;0.60;;
41705;SDS011;27385;51.096;17.190;2023-05-14T10:44:51;5.10;;;0.60;;
41705;SDS011;27385;51.096;17.190;2023-05-14T10:47:25;5.30;;;0.80;;
41705;SDS011;27385;51.096;17.190;2023-05-14T10:49:57;4.30;;;0.90;;
41705;SDS011;27385;51.096;17.190;2023-05-14T10:52:31;2.40;;;0.60;;
41705;SDS011;27385;51.096;17.190;2023-05-14T10:55:04;4.60;;;0.60;;
41705;SDS011;27385;51.096;17.190;2023-05-14T10:57:37;2.40;;;0.80;;
41705;SDS011;27385;51.096;17.190;2023-05-14T11:00:12;4.60;;;0.80;;
41705;SDS011;27385;51.096;17.190;2023-05-14T11:02:44;5.90;;;0.80;;
41705;SDS011;27385;51.096;17.190;2023-05-14T11:05:15;1.60;;;0.60;;
41705;SDS011;27385;51.096;17.190;2023-05-14T11:07:47;2.40;;;0.60;;
41705;SDS011;27385;51.096;17.190;2023-05-14T11:10:19;3.00;;;0.60;;
41705;SDS011;27385;51.096;17.190;2023-05-14T11:12:52;3.80;;;0.60;;
41705;SDS011;27385;51.096;17.190;2023-05-14T11:15:24;2.10;;;0.60;;
41705;SDS011;27385;51.096;17.190;2023-05-14T11:17:56;2.10;;;0.60;;
41705;SDS011;27385;51.096;17.190;2023-05-14T11:20:27;2.60;;;0.70;;
41705;SDS011;27385;51.096;17.190;2023-05-14T11:22:59;5.20;;;0.90;;
41705;SDS011;27385;51.096;17.190;2023-05-14T11:25:30;3.40;;;0.70;;
41705;SDS011;27385;51.096;17.190;2023-05-14T11:28:01;2.20;;;0.70;;
41705;SDS011;27385;51.096;17.190;2023-05-14T11:30:32;3.60;;;0.70;;
41705;SDS011;27385;51.096;17.190;2023-05-14T11:33:06;4.90;;;0.60;;
41705;SDS011;27385;51.096;17.190;2023-05-14T11:35:45;2.50;;;0.70;;
41705;SDS011;27385;51.096;17.190;2023-05-14T11:38:17;6.30;;;1.10;;
41705;SDS011;27385;51.096;17.190;2023-05-14T11:40:52;4.60;;;1.20;;
41705;SDS011;27385;51.096;17.190;2023-05-14T11:43:24;4.00;;;1.00;;
41705;SDS011;27385;51.096;17.190;2023-05-14T11:45:56;4.40;;;0.90;;
41705;SDS011;27385;51.096;17.190;2023-05-14T11:48:27;5.00;;;0.90;;
41705;SDS011;27385;51.096;17.190;2023-05-14T11:51:00;3.50;;;0.80;;
41705;SDS011;27385;51.096;17.190;2023-05-14T11:53:32;4.80;;;0.90;;
41705;SDS011;27385;51.096;17.190;2023-05-14T11:56:04;3.10;;;0.70;;
41705;SDS011;27385;51.096;17.190;2023-05-14T11:58:36;2.60;;;0.80;;
41705;SDS011;27385;51.096;17.190;2023-05-14T12:01:07;3.40;;;0.70;;
41705;SDS011;27385;51.096;17.190;2023-05-14T12:03:43;3.20;;;0.70;;
41705;SDS011;27385;51.096;17.190;2023-05-14T12:06:14;3.00;;;0.60;;
41705;SDS011;27385;51.096;17.190;2023-05-14T12:08:46;3.70;;;0.80;;
41705;SDS011;27385;51.096;17.190;2023-05-14T12:11:19;3.40;;;0.80;;
41705;SDS011;27385;51.096;17.190;2023-05-14T12:13:51;7.10;;;1.00;;
41705;SDS011;27385;51.096;17.190;2023-05-14T12:16:22;4.10;;;1.00;;
41705;SDS011;27385;51.096;17.190;2023-05-14T12:19:00;5.80;;;1.10;;
41705;SDS011;27385;51.096;17.190;2023-05-14T12:21:31;4.70;;;1.40;;
41705;SDS011;27385;51.096;17.190;2023-05-14T12:24:07;6.60;;;1.30;;
41705;SDS011;27385;51.096;17.190;2023-05-14T12:26:40;7.70;;;1.10;;
41705;SDS011;27385;51.096;17.190;2023-05-14T12:29:15;8.90;;;1.40;;
41705;SDS011;27385;51.096;17.190;2023-05-14T12:31:49;8.40;;;2.00;;
41705;SDS011;27385;51.096;17.190;2023-05-14T12:34:20;6.50;;;1.60;;
41705;SDS011;27385;51.096;17.190;2023-05-14T12:36:51;5.60;;;1.40;;
41705;SDS011;27385;51.096;17.190;2023-05-14T12:39:22;6.70;;;1.80;;
41705;SDS011;27385;51.096;17.190;2023-05-14T12:41:53;7.60;;;1.50;;
41705;SDS011;27385;51.096;17.190;2023-05-14T12:44:24;4.80;;;1.50;;
41705;SDS011;27385;51.096;17.190;2023-05-14T12:46:55;5.20;;;1.50;;
41705;SDS011;27385;51.096;17.190;2023-05-14T12:49:26;6.30;;;1.90;;
41705;SDS011;27385;51.096;17.190;2023-05-14T12:51:57;6.50;;;2.10;;
41705;SDS011;27385;51.096;17.190;2023-05-14T12:54:28;6.10;;;1.60;;
41705;SDS011;27385;51.096;17.190;2023-05-14T12:56:59;6.30;;;1.60;;
41705;SDS011;27385;51.096;17.190;2023-05-14T12:59:31;12.30;;;2.70;;
41705;SDS011;27385;51.096;17.190;2023-05-14T13:02:02;9.40;;;2.10;;
41705;SDS011;27385;51.096;17.190;2023-05-14T13:04:33;11.60;;;2.90;;
41705;SDS011;27385;51.096;17.190;2023-05-14T13:07:05;18.00;;;6.70;;
41705;SDS011;27385;51.096;17.190;2023-05-14T13:09:36;34.60;;;20.30;;
41705;SDS011;27385;51.096;17.190;2023-05-14T13:12:08;30.40;;;14.30;;
41705;SDS011;27385;51.096;17.190;2023-05-14T13:14:39;42.50;;;22.70;;
41705;SDS011;27385;51.096;17.190;2023-05-14T13:17:10;9.80;;;2.80;;
41705;SDS011;27385;51.096;17.190;2023-05-14T13:19:41;7.00;;;1.60;;
41705;SDS011;27385;51.096;17.190;2023-05-14T13:22:12;7.60;;;1.70;;
41705;SDS011;27385;51.096;17.190;2023-05-14T13:24:44;7.40;;;2.30;;
41705;SDS011;27385;51.096;17.190;2023-05-14T13:27:15;5.50;;;1.30;;
41705;SDS011;27385;51.096;17.190;2023-05-14T13:29:46;6.50;;;1.70;;
41705;SDS011;27385;51.096;17.190;2023-05-14T13:32:17;7.00;;;1.80;;
41705;SDS011;27385;51.096;17.190;2023-05-14T13:34:47;16.80;;;5.30;;
41705;SDS011;27385;51.096;17.190;2023-05-14T13:37:18;8.40;;;2.30;;
41705;SDS011;27385;51.096;17.190;2023-05-14T13:39:49;10.30;;;2.90;;
41705;SDS011;27385;51.096;17.190;2023-05-14T13:42:20;7.10;;;2.20;;
41705;SDS011;27385;51.096;17.190;2023-05-14T13:44:51;15.50;;;3.20;;
41705;SDS011;27385;51.096;17.190;2023-05-14T13:47:23;13.90;;;3.80;;
41705;SDS011;27385;51.096;17.190;2023-05-14T13:49:54;11.30;;;3.50;;
41705;SDS011;27385;51.096;17.190;2023-05-14T13:52:25;13.30;;;3.10;;
41705;SDS011;27385;51.096;17.190;2023-05-14T13:54:57;10.50;;;3.50;;
41705;SDS011;27385;51.096;17.190;2023-05-14T13:57:28;24.10;;;10.60;;
41705;SDS011;27385;51.096;17.190;2023-05-14T13:59:59;8.30;;;2.20;;
41705;SDS011;27385;51.096;17.190;2023-05-14T14:02:31;8.70;;;2.00;;
41705;SDS011;27385;51.096;17.190;2023-05-14T14:05:02;8.70;;;2.10;;
41705;SDS011;27385;51.096;17.190;2023-05-14T14:07:34;10.90;;;2.40;;
41705;SDS011;27385;51.096;17.190;2023-05-14T14:10:07;5.90;;;1.80;;
41705;SDS011;27385;51.096;17.190;2023-05-14T14:12:39;9.50;;;2.10;;
41705;SDS011;27385;51.096;17.190;2023-05-14T14:15:10;9.10;;;2.10;;
41705;SDS011;27385;51.096;17.190;2023-05-14T14:17:41;11.90;;;2.00;;
41705;SDS011;27385;51.096;17.190;2023-05-14T14:20:12;9.00;;;2.10;;
41705;SDS011;27385;51.096;17.190;2023-05-14T14:22:44;9.30;;;1.80;;
41705;SDS011;27385;51.096;17.190;2023-05-14T14:25:15;7.20;;;2.40;;
41705;SDS011;27385;51.096;17.190;2023-05-14T14:27:46;7.10;;;2.30;;
41705;SDS011;27385;51.096;17.190;2023-05-14T14:30:18;9.40;;;2.10;;
41705;SDS011;27385;51.096;17.190;2023-05-14T14:32:49;10.50;;;2.10;;
41705;SDS011;27385;51.096;17.190;2023-05-14T14:35:20;7.50;;;1.80;;
41705;SDS011;27385;51.096;17.190;2023-05-14T14:37:51;7.50;;;1.70;;
41705;SDS011;27385;51.096;17.190;2023-05-14T14:40:22;7.30;;;1.70;;
41705;SDS011;27385;51.096;17.190;2023-05-14T14:42:53;7.10;;;1.70;;
41705;SDS011;27385;51.096;17.190;2023-05-14T14:45:24;13.80;;;1.70;;
41705;SDS011;27385;51.096;17.190;2023-05-14T14:51:01;10.30;;;1.70;;
41705;SDS011;27385;51.096;17.190;2023-05-14T14:53:32;8.50;;;1.90;;
41705;SDS011;27385;51.096;17.190;2023-05-14T14:56:05;5.60;;;1.60;;
41705;SDS011;27385;51.096;17.190;2023-05-14T14:58:36;8.40;;;2.00;;